createdAt,value
2022-12-03T00:00:31.155Z,9.38
2022-12-03T00:02:57.877Z,8.48
2022-12-03T00:05:24.543Z,9.07
2022-12-03T00:07:50.991Z,9.02
2022-12-03T00:10:17.530Z,8.90
2022-12-03T00:12:44.041Z,8.25
2022-12-03T00:15:11.479Z,8.75
2022-12-03T00:17:38.050Z,8.35
2022-12-03T00:20:16.919Z,9.10
2022-12-03T00:22:43.401Z,9.13
2022-12-03T00:25:09.936Z,9.95
2022-12-03T00:27:36.458Z,9.02
2022-12-03T00:30:03.772Z,9.13
2022-12-03T00:32:30.612Z,10.60
2022-12-03T00:34:57.303Z,10.03
2022-12-03T00:37:23.732Z,8.38
2022-12-03T00:39:50.572Z,9.52
2022-12-03T00:42:17.028Z,9.82
2022-12-03T00:44:43.540Z,9.77
2022-12-03T00:47:10.188Z,9.53
2022-12-03T00:49:36.699Z,9.30
2022-12-03T00:52:03.305Z,9.65
2022-12-03T00:54:32.037Z,8.80
2022-12-03T00:56:58.907Z,10.05
2022-12-03T00:59:25.432Z,9.07
2022-12-03T01:01:52.095Z,9.77
2022-12-03T01:04:18.863Z,9.77
2022-12-03T01:06:45.551Z,9.50
2022-12-03T01:09:12.096Z,9.40
2022-12-03T01:11:38.685Z,10.33
2022-12-03T01:14:10.564Z,9.88
2022-12-03T01:16:37.777Z,9.65
2022-12-03T01:19:07.003Z,9.68
2022-12-03T01:21:33.505Z,9.50
2022-12-03T01:24:00.001Z,9.60
2022-12-03T01:26:26.690Z,10.88
2022-12-03T01:28:53.388Z,10.35
2022-12-03T01:31:20.215Z,10.57
2022-12-03T01:33:46.792Z,9.60
2022-12-03T01:36:13.323Z,9.73
2022-12-03T01:38:39.824Z,10.05
2022-12-03T01:41:11.542Z,9.70
2022-12-03T01:43:38.802Z,9.45
2022-12-03T01:46:06.680Z,10.15
2022-12-03T01:48:37.780Z,9.60
2022-12-03T01:51:05.864Z,10.65
2022-12-03T01:53:32.540Z,9.60
2022-12-03T01:55:59.251Z,10.15
2022-12-03T01:58:28.474Z,11.27
2022-12-03T02:00:56.189Z,10.13
2022-12-03T02:03:25.640Z,10.40
2022-12-03T02:05:53.008Z,10.82
2022-12-03T02:08:35.328Z,9.82
2022-12-03T02:11:18.264Z,9.90
2022-12-03T02:13:45.274Z,10.23
2022-12-03T02:16:11.796Z,10.00
2022-12-03T02:18:38.342Z,10.20
2022-12-03T02:21:18.694Z,10.02
2022-12-03T02:24:03.340Z,10.73
2022-12-03T02:26:29.801Z,11.10
2022-12-03T02:28:56.805Z,10.70
2022-12-03T02:31:24.152Z,9.65
2022-12-03T02:33:50.682Z,10.88
2022-12-03T02:36:17.254Z,11.05
2022-12-03T02:38:45.616Z,10.73
2022-12-03T02:41:15.814Z,10.80
2022-12-03T02:43:42.269Z,10.65
2022-12-03T02:46:08.852Z,10.82
2022-12-03T02:48:38.287Z,11.10
2022-12-03T02:51:08.690Z,10.23
2022-12-03T02:53:39.900Z,10.18
2022-12-03T02:56:06.851Z,10.93
2022-12-03T02:58:34.024Z,10.38
2022-12-03T03:01:03.036Z,11.35
2022-12-03T03:03:32.100Z,10.83
2022-12-03T03:06:02.187Z,10.90
2022-12-03T03:08:29.377Z,10.95
2022-12-03T03:10:57.291Z,9.80
2022-12-03T03:13:23.759Z,10.52
2022-12-03T03:15:50.341Z,11.73
2022-12-03T03:18:17.627Z,10.32
2022-12-03T03:20:45.074Z,11.48
2022-12-03T03:23:11.438Z,10.82
2022-12-03T03:25:39.509Z,10.63
2022-12-03T03:28:07.129Z,11.10
2022-12-03T03:30:37.182Z,11.77
2022-12-03T03:33:03.670Z,11.48
2022-12-03T03:35:30.406Z,12.00
2022-12-03T03:37:57.850Z,11.23
2022-12-03T03:40:25.556Z,11.33
2022-12-03T03:42:52.008Z,11.13
2022-12-03T03:45:24.008Z,12.07
2022-12-03T03:47:54.548Z,11.73
2022-12-03T03:50:21.653Z,11.60
2022-12-03T03:52:48.177Z,11.47
2022-12-03T03:55:14.925Z,11.40
2022-12-03T03:57:41.356Z,11.63
2022-12-03T04:00:08.810Z,11.48
2022-12-03T04:02:36.458Z,11.52
2022-12-03T04:05:03.379Z,12.17
2022-12-03T04:07:29.793Z,11.75
2022-12-03T04:09:56.224Z,12.13
2022-12-03T04:12:22.677Z,11.10
2022-12-03T04:14:49.090Z,12.48
2022-12-03T04:17:15.520Z,10.53
2022-12-03T04:19:41.914Z,12.25
2022-12-03T04:22:08.304Z,11.82
2022-12-03T04:24:34.785Z,11.55
2022-12-03T04:27:01.195Z,11.57
2022-12-03T04:29:27.649Z,10.67
2022-12-03T04:31:54.077Z,12.18
2022-12-03T04:34:20.515Z,12.35
2022-12-03T04:36:47.425Z,12.18
2022-12-03T04:39:14.009Z,12.48
2022-12-03T04:41:40.383Z,12.87
2022-12-03T04:44:06.987Z,12.35
2022-12-03T04:46:33.548Z,12.60
2022-12-03T04:48:59.933Z,12.05
2022-12-03T04:51:26.332Z,11.52
2022-12-03T04:53:52.765Z,12.47
2022-12-03T04:56:19.207Z,13.50
2022-12-03T04:58:45.634Z,12.20
2022-12-03T05:01:12.097Z,12.45
2022-12-03T05:03:38.535Z,12.45
2022-12-03T05:06:05.047Z,12.57
2022-12-03T05:08:31.471Z,12.82
2022-12-03T05:10:57.922Z,12.82
2022-12-03T05:13:24.332Z,12.13
2022-12-03T05:15:50.818Z,12.68
2022-12-03T05:18:17.247Z,12.70
2022-12-03T05:20:47.134Z,10.82
2022-12-03T05:23:19.286Z,13.20
2022-12-03T05:25:45.735Z,12.25
2022-12-03T05:28:12.253Z,12.90
2022-12-03T05:30:38.786Z,12.57
2022-12-03T05:33:05.312Z,12.43
2022-12-03T05:35:31.868Z,12.57
2022-12-03T05:37:58.283Z,13.93
2022-12-03T05:40:25.018Z,13.18
2022-12-03T05:42:51.451Z,12.93
2022-12-03T05:45:17.925Z,12.88
2022-12-03T05:47:44.643Z,13.68
2022-12-03T05:50:11.421Z,12.55
2022-12-03T05:52:37.869Z,11.73
2022-12-03T05:55:04.655Z,12.20
2022-12-03T05:57:31.063Z,13.27
2022-12-03T05:59:57.506Z,12.65
2022-12-03T06:02:24.046Z,12.45
2022-12-03T06:04:50.809Z,12.27
2022-12-03T06:07:17.441Z,12.03
2022-12-03T06:09:43.941Z,11.63
2022-12-03T06:12:10.342Z,11.57
2022-12-03T06:14:36.808Z,11.35
2022-12-03T06:17:03.471Z,10.80
2022-12-03T06:19:29.953Z,11.57
2022-12-03T06:21:56.546Z,10.95
2022-12-03T06:24:22.952Z,11.27
2022-12-03T06:26:49.459Z,10.27
2022-12-03T06:29:16.014Z,11.15
2022-12-03T06:31:42.592Z,11.33
2022-12-03T06:34:09.127Z,11.57
2022-12-03T06:36:35.523Z,10.85
2022-12-03T06:39:02.006Z,10.88
2022-12-03T06:41:28.409Z,11.38
2022-12-03T06:43:54.865Z,10.63
2022-12-03T06:46:21.409Z,10.55
2022-12-03T06:48:47.890Z,11.02
2022-12-03T06:51:14.285Z,10.32
2022-12-03T06:53:40.713Z,10.93
2022-12-03T06:56:07.450Z,11.00
2022-12-03T06:58:33.930Z,10.88
2022-12-03T07:01:00.396Z,11.35
2022-12-03T07:03:26.855Z,11.18
2022-12-03T07:05:53.279Z,11.63
2022-12-03T07:08:19.717Z,10.60
2022-12-03T07:10:46.193Z,11.13
2022-12-03T07:13:12.647Z,10.75
2022-12-03T07:15:39.059Z,12.07
2022-12-03T07:18:05.590Z,11.25
2022-12-03T07:20:32.071Z,10.53
2022-12-03T07:22:58.523Z,12.18
2022-12-03T07:25:24.953Z,11.70
2022-12-03T07:27:51.346Z,12.52
2022-12-03T07:30:18.497Z,13.23
2022-12-03T07:32:44.888Z,12.37
2022-12-03T07:35:11.392Z,12.27
2022-12-03T07:37:37.862Z,12.82
2022-12-03T07:40:06.130Z,13.05
2022-12-03T07:42:32.553Z,13.40
2022-12-03T07:44:58.978Z,13.10
2022-12-03T07:47:25.444Z,14.13
2022-12-03T07:49:51.866Z,12.77
2022-12-03T07:52:18.265Z,12.85
2022-12-03T07:54:44.738Z,13.73
2022-12-03T07:57:11.178Z,12.67
2022-12-03T07:59:37.604Z,12.77
2022-12-03T08:02:04.062Z,13.15
2022-12-03T08:04:30.504Z,12.90
2022-12-03T08:06:56.969Z,12.80
2022-12-03T08:09:23.407Z,14.50
2022-12-03T08:11:50.135Z,12.93
2022-12-03T08:14:18.856Z,13.07
2022-12-03T08:16:46.777Z,13.38
2022-12-03T08:19:15.974Z,12.15
2022-12-03T08:21:44.733Z,12.60
2022-12-03T08:24:18.014Z,13.23
2022-12-03T08:26:46.254Z,12.70
2022-12-03T08:29:18.052Z,12.88
2022-12-03T08:31:49.690Z,12.43
2022-12-03T08:34:23.355Z,11.93
2022-12-03T08:36:56.013Z,11.25
2022-12-03T08:39:29.537Z,11.73
2022-12-03T08:42:13.528Z,10.65
2022-12-03T08:44:40.332Z,11.70
2022-12-03T08:47:09.824Z,11.93
2022-12-03T08:49:37.076Z,10.90
2022-12-03T08:52:13.154Z,12.25
2022-12-03T08:54:39.593Z,12.60
2022-12-03T08:57:28.952Z,11.88
2022-12-03T09:00:11.609Z,13.47
2022-12-03T09:02:40.419Z,12.32
2022-12-03T09:05:20.847Z,16.48
2022-12-03T09:07:47.391Z,10.93
2022-12-03T09:10:13.823Z,12.45
2022-12-03T09:12:40.285Z,11.07
2022-12-03T09:15:07.696Z,13.60
2022-12-03T09:17:34.280Z,11.80
2022-12-03T09:20:00.813Z,12.63
2022-12-03T09:22:27.273Z,13.02
2022-12-03T09:24:54.076Z,11.13
2022-12-03T09:27:20.878Z,11.75
2022-12-03T09:29:47.419Z,11.25
2022-12-03T09:32:18.341Z,12.05
2022-12-03T09:34:45.277Z,12.77
2022-12-03T09:37:11.739Z,13.37
2022-12-03T09:39:38.160Z,12.40
2022-12-03T09:42:05.032Z,11.68
2022-12-03T09:44:34.445Z,13.35
2022-12-03T09:47:02.467Z,13.13
2022-12-03T09:49:30.303Z,12.63
2022-12-03T09:51:58.238Z,13.93
2022-12-03T09:54:27.713Z,10.98
2022-12-03T09:56:56.053Z,12.32
2022-12-03T09:59:25.713Z,13.00
2022-12-03T10:01:53.428Z,12.40
2022-12-03T10:04:20.222Z,12.27
2022-12-03T10:06:47.342Z,12.68
2022-12-03T10:09:16.843Z,12.32
2022-12-03T10:11:43.592Z,12.35
2022-12-03T10:14:13.611Z,12.73
2022-12-03T10:16:41.390Z,12.98
2022-12-03T10:19:11.543Z,12.68
2022-12-03T10:21:38.953Z,12.80
2022-12-03T10:24:21.309Z,13.48
2022-12-03T10:26:49.832Z,13.27
2022-12-03T10:29:20.546Z,13.80
2022-12-03T10:31:55.905Z,14.00
2022-12-03T10:34:33.976Z,11.82
2022-12-03T10:37:11.527Z,13.40
2022-12-03T10:40:03.904Z,12.93
2022-12-03T10:42:32.937Z,13.02
2022-12-03T10:45:19.598Z,12.48
2022-12-03T10:48:13.831Z,12.13
2022-12-03T10:50:57.324Z,12.43
2022-12-03T10:53:28.303Z,13.77
2022-12-03T10:55:55.423Z,14.02
2022-12-03T10:58:24.714Z,13.40
2022-12-03T11:00:53.486Z,12.20
2022-12-03T11:03:26.003Z,13.00
2022-12-03T11:05:53.788Z,13.00
2022-12-03T11:08:23.842Z,15.25
2022-12-03T11:11:21.264Z,13.55
2022-12-03T11:14:04.459Z,12.90
2022-12-03T11:16:39.957Z,12.68
2022-12-03T11:19:12.324Z,11.57
2022-12-03T11:22:03.545Z,11.73
2022-12-03T11:24:30.647Z,12.30
2022-12-03T11:26:57.010Z,13.85
2022-12-03T11:29:48.092Z,12.82
2022-12-03T11:32:39.288Z,12.77
2022-12-03T11:35:25.696Z,12.35
2022-12-03T11:37:52.694Z,12.45
2022-12-03T11:40:19.149Z,13.65
2022-12-03T11:42:47.641Z,14.07
2022-12-03T11:45:23.141Z,13.03
2022-12-03T11:47:58.381Z,13.27
2022-12-03T11:50:52.870Z,13.32
2022-12-03T11:53:23.005Z,14.55
2022-12-03T11:55:53.277Z,14.70
2022-12-03T11:58:30.255Z,13.93
2022-12-03T12:00:59.103Z,13.27
2022-12-03T12:03:36.974Z,12.68
2022-12-03T12:06:05.107Z,15.48
2022-12-03T12:08:32.304Z,15.15
2022-12-03T12:10:59.045Z,14.90
2022-12-03T12:13:31.255Z,15.52
2022-12-03T12:16:02.031Z,14.13
2022-12-03T12:18:43.901Z,14.23
2022-12-03T12:21:47.802Z,14.20
2022-12-03T12:24:38.605Z,12.93
2022-12-03T12:27:08.070Z,12.65
2022-12-03T12:29:36.101Z,12.98
2022-12-03T12:32:05.701Z,13.05
2022-12-03T12:34:32.123Z,12.77
2022-12-03T12:37:00.382Z,13.93
2022-12-03T12:39:26.992Z,13.70
2022-12-03T12:41:54.305Z,14.23
2022-12-03T12:44:21.804Z,15.20
2022-12-03T12:46:52.781Z,14.02
2022-12-03T12:49:19.369Z,14.70
2022-12-03T12:51:47.506Z,15.50
2022-12-03T12:54:16.187Z,17.20
2022-12-03T12:56:44.908Z,18.85
2022-12-03T12:59:14.685Z,16.38
2022-12-03T13:01:42.856Z,17.87
2022-12-03T13:04:23.597Z,15.10
2022-12-03T13:06:54.215Z,15.38
2022-12-03T13:09:23.507Z,14.80
2022-12-03T13:11:58.550Z,14.23
2022-12-03T13:14:30.193Z,13.67
2022-12-03T13:16:58.931Z,13.85
2022-12-03T13:19:49.540Z,12.70
2022-12-03T13:22:22.449Z,14.80
2022-12-03T13:24:50.584Z,14.80
2022-12-03T13:27:19.862Z,14.63
2022-12-03T13:29:49.081Z,13.55
2022-12-03T13:32:26.508Z,13.02
2022-12-03T13:34:55.399Z,14.13
2022-12-03T13:37:25.246Z,13.88
2022-12-03T13:39:54.523Z,13.50
2022-12-03T13:42:33.305Z,15.70
2022-12-03T13:45:01.540Z,15.75
2022-12-03T13:47:28.030Z,13.70
2022-12-03T13:50:01.873Z,14.63
2022-12-03T13:52:34.550Z,13.30
2022-12-03T13:55:03.563Z,13.90
2022-12-03T13:57:30.042Z,13.32
2022-12-03T13:59:56.871Z,14.88
2022-12-03T14:02:23.592Z,14.52
2022-12-03T14:04:51.354Z,14.13
2022-12-03T14:07:19.546Z,15.10
2022-12-03T14:09:45.989Z,13.02
2022-12-03T14:12:12.446Z,11.63
2022-12-03T14:14:38.901Z,13.10
2022-12-03T14:17:05.379Z,18.10
2022-12-03T14:19:32.343Z,13.95
2022-12-03T14:21:58.857Z,13.30
2022-12-03T14:24:25.952Z,12.23
2022-12-03T14:26:52.441Z,14.60
2022-12-03T14:29:18.885Z,12.07
2022-12-03T14:31:45.388Z,12.40
2022-12-03T14:34:11.995Z,12.88
2022-12-03T14:36:38.511Z,16.13
2022-12-03T14:39:04.986Z,13.60
2022-12-03T14:41:31.525Z,14.13
2022-12-03T14:43:57.954Z,12.50
2022-12-03T14:46:24.497Z,10.43
2022-12-03T14:48:50.957Z,12.90
2022-12-03T14:51:17.412Z,12.23
2022-12-03T14:53:43.834Z,12.80
2022-12-03T14:56:10.240Z,13.40
2022-12-03T14:58:36.681Z,13.60
2022-12-03T15:01:03.147Z,14.48
2022-12-03T15:03:29.624Z,13.30
2022-12-03T15:05:56.037Z,11.57
2022-12-03T15:08:22.520Z,12.45
2022-12-03T15:10:48.955Z,12.48
2022-12-03T15:13:15.395Z,12.70
2022-12-03T15:15:41.816Z,12.85
2022-12-03T15:18:08.236Z,13.43
2022-12-03T15:20:34.913Z,13.30
2022-12-03T15:23:01.446Z,12.68
2022-12-03T15:25:27.821Z,12.60
2022-12-03T15:27:54.358Z,14.38
2022-12-03T15:30:20.930Z,12.70
2022-12-03T15:32:47.484Z,13.45
2022-12-03T15:35:13.900Z,13.77
2022-12-03T15:37:40.353Z,13.80
2022-12-03T15:40:07.330Z,13.80
2022-12-03T15:42:33.748Z,15.50
2022-12-03T15:45:00.113Z,13.13
2022-12-03T15:47:26.544Z,14.13
2022-12-03T15:49:53.345Z,14.15
2022-12-03T15:52:19.839Z,12.73
2022-12-03T15:54:46.241Z,11.67
2022-12-03T15:57:12.639Z,13.90
2022-12-03T15:59:39.008Z,11.50
2022-12-03T16:02:05.521Z,13.93
2022-12-03T16:04:32.078Z,13.75
2022-12-03T16:06:58.464Z,15.00
2022-12-03T16:09:27.386Z,13.15
2022-12-03T16:11:53.955Z,15.27
2022-12-03T16:14:20.428Z,13.77
2022-12-03T16:16:47.021Z,13.07
2022-12-03T16:19:13.449Z,14.20
2022-12-03T16:21:39.875Z,15.38
2022-12-03T16:24:06.440Z,13.25
2022-12-03T16:26:32.884Z,14.73
2022-12-03T16:28:59.369Z,14.30
2022-12-03T16:31:25.853Z,15.23
2022-12-03T16:33:52.289Z,14.73
2022-12-03T16:36:18.710Z,20.17
2022-12-03T16:38:45.111Z,15.90
2022-12-03T16:41:11.604Z,14.35
2022-12-03T16:43:38.040Z,13.60
2022-12-03T16:46:06.062Z,15.02
2022-12-03T16:48:32.540Z,16.50
2022-12-03T16:50:58.978Z,13.50
2022-12-03T16:53:25.496Z,14.20
2022-12-03T16:55:51.941Z,13.67
2022-12-03T16:58:18.421Z,15.38
2022-12-03T17:00:44.864Z,16.52
2022-12-03T17:03:11.312Z,15.88
2022-12-03T17:05:37.863Z,15.85
2022-12-03T17:08:04.462Z,25.47
2022-12-03T17:10:31.100Z,19.80
2022-12-03T17:13:12.962Z,15.52
2022-12-03T17:15:40.258Z,15.25
2022-12-03T17:18:07.931Z,15.73
2022-12-03T17:20:34.640Z,14.53
2022-12-03T17:23:01.630Z,15.95
2022-12-03T17:25:28.587Z,15.05
2022-12-03T17:27:55.092Z,17.52
2022-12-03T17:30:21.544Z,13.88
2022-12-03T17:32:47.993Z,14.77
2022-12-03T17:35:14.483Z,15.10
2022-12-03T17:37:40.955Z,15.32
2022-12-03T17:40:11.543Z,15.30
2022-12-03T17:42:38.159Z,16.40
2022-12-03T17:45:05.244Z,16.53
2022-12-03T17:47:31.767Z,15.07
2022-12-03T17:49:58.170Z,16.50
2022-12-03T17:52:24.593Z,18.70
2022-12-03T17:57:37.467Z,19.60
2022-12-03T18:00:04.797Z,16.30
2022-12-03T18:02:31.284Z,16.35
2022-12-03T18:04:57.700Z,18.20
2022-12-03T18:07:24.117Z,17.42
2022-12-03T18:09:50.537Z,16.70
2022-12-03T18:12:17.000Z,18.92
2022-12-03T18:14:43.403Z,16.77
2022-12-03T18:17:09.922Z,17.40
2022-12-03T18:19:36.453Z,15.68
2022-12-03T18:22:02.904Z,14.33
2022-12-03T18:24:29.351Z,16.85
2022-12-03T18:26:55.844Z,15.98
2022-12-03T18:29:22.407Z,16.42
2022-12-03T18:31:48.883Z,18.85
2022-12-03T18:34:15.370Z,16.33
2022-12-03T18:36:42.127Z,16.05
2022-12-03T18:39:18.588Z,16.77
2022-12-03T18:41:45.030Z,18.48
2022-12-03T18:44:11.544Z,15.40
2022-12-03T18:46:52.921Z,15.43
2022-12-03T18:49:19.674Z,16.05
2022-12-03T18:51:46.148Z,15.80
2022-12-03T18:54:13.361Z,16.17
2022-12-03T18:56:41.460Z,18.17
2022-12-03T18:59:08.685Z,34.40
2022-12-03T19:01:35.972Z,19.60
2022-12-03T19:04:02.663Z,16.40
2022-12-03T19:06:29.216Z,16.55
2022-12-03T19:08:55.726Z,16.88
2022-12-03T19:11:22.563Z,16.67
2022-12-03T19:13:49.030Z,17.38
2022-12-03T19:16:15.480Z,17.63
2022-12-03T19:18:42.007Z,16.58
2022-12-03T19:21:10.797Z,16.95
2022-12-03T19:23:38.062Z,15.73
2022-12-03T19:26:06.572Z,17.27
2022-12-03T19:28:33.982Z,17.90
2022-12-03T19:31:06.580Z,15.52
2022-12-03T19:33:34.510Z,15.18
2022-12-03T19:36:05.694Z,16.13
2022-12-03T19:38:33.159Z,17.67
2022-12-03T19:41:05.964Z,16.58
2022-12-03T19:43:34.104Z,20.25
2022-12-03T19:46:09.029Z,16.73
2022-12-03T19:48:37.956Z,15.13
2022-12-03T19:51:32.424Z,15.80
2022-12-03T19:53:53.736Z,16.77
2022-12-03T19:56:20.221Z,23.98
2022-12-03T19:58:47.532Z,16.85
2022-12-03T20:01:20.629Z,17.37
2022-12-03T20:03:50.560Z,17.70
2022-12-03T20:06:20.681Z,18.08
2022-12-03T20:08:47.110Z,18.15
2022-12-03T20:11:22.096Z,16.38
2022-12-03T20:13:51.956Z,16.40
2022-12-03T20:16:18.388Z,17.38
2022-12-03T20:18:46.640Z,15.98
2022-12-03T20:21:16.065Z,16.27
2022-12-03T20:23:42.802Z,16.00
2022-12-03T20:26:11.019Z,16.33
2022-12-03T20:28:37.431Z,16.38
2022-12-03T20:31:07.178Z,18.90
2022-12-03T20:33:33.570Z,18.23
2022-12-03T20:36:00.002Z,18.23
2022-12-03T20:38:26.606Z,18.73
2022-12-03T20:40:53.413Z,17.88
2022-12-03T20:43:20.183Z,17.83
2022-12-03T20:45:46.668Z,18.67
2022-12-03T20:48:13.115Z,16.75
2022-12-03T20:50:39.948Z,19.37
2022-12-03T20:53:24.377Z,18.23
2022-12-03T20:55:55.954Z,18.98
2022-12-03T20:58:22.442Z,17.98
2022-12-03T21:00:48.968Z,18.08
2022-12-03T21:03:15.593Z,18.40
2022-12-03T21:05:42.592Z,16.98
2022-12-03T21:08:09.387Z,18.13
2022-12-03T21:10:41.037Z,18.20
2022-12-03T21:13:07.474Z,18.30
2022-12-03T21:15:33.984Z,19.53
2022-12-03T21:18:00.464Z,17.35
2022-12-03T21:20:26.863Z,18.70
2022-12-03T21:22:53.261Z,20.92
2022-12-03T21:25:19.632Z,19.60
2022-12-03T21:27:46.071Z,20.13
2022-12-03T21:30:12.729Z,17.27
2022-12-03T21:32:39.184Z,19.20
2022-12-03T21:35:06.020Z,21.75
2022-12-03T21:37:32.434Z,20.30
2022-12-03T21:39:58.863Z,22.83
2022-12-03T21:42:36.838Z,20.95
2022-12-03T21:45:06.523Z,18.42
2022-12-03T21:47:37.163Z,17.77
2022-12-03T21:50:06.039Z,17.92
2022-12-03T21:52:33.809Z,19.93
2022-12-03T21:55:00.256Z,17.67
2022-12-03T21:57:26.785Z,19.25
2022-12-03T21:59:54.974Z,17.85
2022-12-03T22:02:22.174Z,19.52
2022-12-03T22:04:51.417Z,19.40
2022-12-03T22:07:20.257Z,18.73
2022-12-03T22:09:46.780Z,27.98
2022-12-03T22:12:13.176Z,22.08
2022-12-03T22:14:39.640Z,19.65
2022-12-03T22:17:06.073Z,22.87
2022-12-03T22:19:32.638Z,19.98
2022-12-03T22:21:59.158Z,19.55
2022-12-03T22:24:25.573Z,18.20
2022-12-03T22:26:51.933Z,18.42
2022-12-03T22:29:18.380Z,17.70
2022-12-03T22:31:44.803Z,19.00
2022-12-03T22:34:11.305Z,17.92
2022-12-03T22:36:37.819Z,19.88
2022-12-03T22:39:04.434Z,18.88
2022-12-03T22:41:30.950Z,20.23
2022-12-03T22:43:57.367Z,17.80
2022-12-03T22:46:23.904Z,19.52
2022-12-03T22:48:50.405Z,21.05
2022-12-03T22:51:22.404Z,20.65
2022-12-03T22:53:54.712Z,19.97
2022-12-03T22:56:21.143Z,19.17
2022-12-03T22:58:47.645Z,21.15
2022-12-03T23:01:22.348Z,18.52
2022-12-03T23:03:49.145Z,21.38
2022-12-03T23:06:16.011Z,17.87
2022-12-03T23:08:42.687Z,20.55
2022-12-03T23:11:09.198Z,25.52
2022-12-03T23:13:36.438Z,23.65
2022-12-03T23:16:03.950Z,18.75
2022-12-03T23:18:30.656Z,17.70
2022-12-03T23:20:57.560Z,17.27
2022-12-03T23:23:25.921Z,17.30
2022-12-03T23:26:01.116Z,17.98
2022-12-03T23:28:29.331Z,16.98
2022-12-03T23:30:56.510Z,17.03
2022-12-03T23:33:23.908Z,16.85
2022-12-03T23:35:50.670Z,17.45
2022-12-03T23:38:17.396Z,17.77
2022-12-03T23:40:48.013Z,16.25
2022-12-03T23:43:15.225Z,17.97
2022-12-03T23:45:41.692Z,16.50
2022-12-03T23:48:08.175Z,18.25
2022-12-03T23:50:34.575Z,17.02
2022-12-03T23:53:00.998Z,17.65
2022-12-03T23:55:27.407Z,16.07
2022-12-03T23:57:53.839Z,17.00
